TX06 weather

Carrington Heliport
Bartonville, Texas, United States

Public forecast

Using degrees Fahrenheit for public forecast. Weather courtesy of forecast.io.

METAR (pilot weather report)

Closest report is Denton Municipal Airport, 7.9 nm (14.6 km) NNW. Retrieved 2019/09/15 04:53 UTC (22 minutes ago):

KDTO 150453Z AUTO 00000KT 10SM CLR 24/19 A3009 RMK AO2 SLP181 T02440189

TAF (pilot weather forecast)

Forecast is more than 12 hours old.

Closest forecast is Fort Worth Alliance Airport, 10.5 nm (19.4 km) WSW. Retrieved 2019/09/14 00:27 UTC (1 day ago):

TAF KAFW 142324Z 1500/1524 11007KT P6SM FEW080